Seul Choix Point, Michigan
Current Conditions -  °F | °C
As of 12:54 PM on Saturday 25 Oct 2014 (Local Time) from KISQ Reporting Station
Clear Clear  
Wind Chill: 59°   Ceiling: Unl
Heat Index: 59°   Visibility: 10mi
Dew Point: 37°   Wind: 13mph
Humidity: 43%   Direction: 300°WNW
Pressure: 29.69"   Gusts: 23mph
Location:  45.92°N, 85.92°W
Report Text: KISQ 251654Z AUTO 30011G20KT 10SM CLR 15/03 A2969 RMK AO2 T01520028
Loading
Personal Weather Stations






























Interactive Weather Map
Tropical Storm Tracking
New forecast layout! Learn more

10-Day Weather Forecast

Advertisements
Track Severe Weather on mobile